createdAt,value
2018-07-05T00:00:46.064Z,94668.64
2018-07-05T00:03:25.928Z,94672.43
2018-07-05T00:06:05.778Z,94664.77
2018-07-05T00:08:45.619Z,94654.31
2018-07-05T00:11:25.341Z,94650.50
2018-07-05T00:14:05.155Z,94660.00
2018-07-05T00:16:44.996Z,94667.70
2018-07-05T00:19:24.851Z,94666.08
2018-07-05T00:22:04.753Z,94664.24
2018-07-05T00:24:44.424Z,94671.49
2018-07-05T00:27:24.059Z,94670.17
2018-07-05T00:30:04.835Z,94673.30
2018-07-05T00:32:44.786Z,94672.63
2018-07-05T00:35:24.533Z,94672.33
2018-07-05T00:38:04.279Z,94673.56
2018-07-05T00:40:43.820Z,94661.39
2018-07-05T00:43:23.458Z,94667.33
2018-07-05T00:46:03.253Z,94667.81
2018-07-05T00:48:43.118Z,94668.60
2018-07-05T00:51:23.157Z,94671.90
2018-07-05T00:54:02.998Z,94665.33
2018-07-05T00:56:42.755Z,94661.23
2018-07-05T00:59:22.515Z,94660.63
2018-07-05T01:02:03.223Z,94661.56
2018-07-05T01:04:43.709Z,94658.06
2018-07-05T01:07:23.715Z,94649.39
2018-07-05T01:10:03.663Z,94655.06
2018-07-05T01:12:43.583Z,94650.66
2018-07-05T01:15:23.387Z,94650.13
2018-07-05T01:18:03.119Z,94650.75
2018-07-05T01:20:42.966Z,94647.55
2018-07-05T01:23:22.675Z,94649.23
2018-07-05T01:26:02.381Z,94642.75
2018-07-05T01:28:42.192Z,94653.04
2018-07-05T01:31:22.056Z,94643.62
2018-07-05T01:34:02.049Z,94652.26
2018-07-05T01:36:41.843Z,94655.30
2018-07-05T01:39:21.856Z,94658.61
2018-07-05T01:42:01.671Z,94652.71
2018-07-05T01:44:41.355Z,94656.59
2018-07-05T01:47:21.133Z,94660.41
2018-07-05T01:50:00.959Z,94657.78
2018-07-05T01:52:40.935Z,94661.28
2018-07-05T01:55:20.829Z,94657.71
2018-07-05T01:58:00.573Z,94660.94
2018-07-05T02:00:40.460Z,94659.25
2018-07-05T02:03:20.068Z,94656.63
2018-07-05T02:05:59.813Z,94657.81
2018-07-05T02:08:39.482Z,94655.53
2018-07-05T02:11:19.157Z,94657.30
2018-07-05T02:13:58.877Z,94649.33
2018-07-05T02:16:38.638Z,94654.22
2018-07-05T02:19:18.393Z,94648.58
2018-07-05T02:21:58.172Z,94646.85
2018-07-05T02:24:37.993Z,94653.31
2018-07-05T02:27:17.878Z,94653.98
2018-07-05T02:29:57.590Z,94658.46
2018-07-05T02:32:37.291Z,94658.98
2018-07-05T02:35:17.047Z,94657.30
2018-07-05T02:38:02.204Z,94668.34
2018-07-05T02:40:42.020Z,94673.60
2018-07-05T02:43:21.727Z,94668.84
2018-07-05T02:46:01.495Z,94677.17
2018-07-05T02:48:41.242Z,94674.28
2018-07-05T02:51:20.969Z,94672.52
2018-07-05T02:54:00.783Z,94670.42
2018-07-05T02:56:40.463Z,94672.22
2018-07-05T02:59:20.359Z,94678.38
2018-07-05T03:02:00.368Z,94668.86
2018-07-05T03:04:40.315Z,94666.77
2018-07-05T03:07:20.053Z,94669.32
2018-07-05T03:09:59.967Z,94665.68
2018-07-05T03:12:39.743Z,94669.16
2018-07-05T03:15:19.632Z,94666.05
2018-07-05T03:17:59.692Z,94667.89
2018-07-05T03:20:39.590Z,94664.58
2018-07-05T03:23:19.568Z,94665.01
2018-07-05T03:25:59.485Z,94677.36
2018-07-05T03:28:39.150Z,94683.45
2018-07-05T03:31:19.022Z,94687.39
2018-07-05T03:33:58.930Z,94687.48
2018-07-05T03:36:38.627Z,94687.48
2018-07-05T03:39:18.490Z,94685.84
2018-07-05T03:41:58.199Z,94681.30
2018-07-05T03:44:37.899Z,94684.62
2018-07-05T03:47:17.625Z,94683.92
2018-07-05T03:49:57.418Z,94688.56
2018-07-05T03:52:37.372Z,94691.05
2018-07-05T03:55:17.098Z,94687.67
2018-07-05T03:57:56.999Z,94693.42
2018-07-05T04:00:36.938Z,94688.33
2018-07-05T04:03:16.788Z,94690.47
2018-07-05T04:05:56.542Z,94688.94
2018-07-05T04:08:36.247Z,94692.61
2018-07-05T04:11:16.036Z,94693.84
2018-07-05T04:13:55.769Z,94689.06
2018-07-05T04:16:35.621Z,94693.02
2018-07-05T04:19:15.391Z,94698.36
2018-07-05T04:21:55.214Z,94691.95
2018-07-05T04:24:34.823Z,94694.88
2018-07-05T04:27:14.695Z,94703.14
2018-07-05T04:29:54.458Z,94697.59
2018-07-05T04:32:34.168Z,94700.08
2018-07-05T04:35:13.908Z,94703.00
2018-07-05T04:37:53.659Z,94704.55
2018-07-05T04:40:33.371Z,94708.88
2018-07-05T04:43:13.098Z,94703.25
2018-07-05T04:45:52.984Z,94715.69
2018-07-05T04:48:32.743Z,94714.91
2018-07-05T04:51:12.499Z,94721.83
2018-07-05T04:53:52.174Z,94713.22
2018-07-05T04:56:31.902Z,94719.08
2018-07-05T04:59:11.815Z,94724.04
2018-07-05T05:01:51.654Z,94722.30
2018-07-05T05:04:31.328Z,94720.11
2018-07-05T05:07:11.028Z,94725.22
2018-07-05T05:09:50.676Z,94712.19
2018-07-05T05:12:30.646Z,94720.46
2018-07-05T05:15:10.354Z,94715.33
2018-07-05T05:17:49.982Z,94717.97
2018-07-05T05:20:29.621Z,94714.38
2018-07-05T05:23:09.441Z,94717.71
2018-07-05T05:25:49.162Z,94715.94
2018-07-05T05:28:28.848Z,94712.94
2018-07-05T05:31:08.538Z,94706.78
2018-07-05T05:33:48.336Z,94715.39
2018-07-05T05:36:27.980Z,94713.48
2018-07-05T05:39:07.754Z,94715.06
2018-07-05T05:41:47.386Z,94716.63
2018-07-05T05:44:27.017Z,94713.88
2018-07-05T05:47:06.917Z,94714.97
2018-07-05T05:49:46.837Z,94721.45
2018-07-05T05:52:26.566Z,94725.13
2018-07-05T05:55:06.408Z,94724.69
2018-07-05T05:57:46.836Z,94725.19
2018-07-05T06:00:27.090Z,94725.89
2018-07-05T06:03:06.948Z,94727.66
2018-07-05T06:05:46.834Z,94728.91
2018-07-05T06:08:27.036Z,94727.70
2018-07-05T06:11:06.826Z,94729.33
2018-07-05T06:13:46.710Z,94735.13
2018-07-05T06:16:26.608Z,94734.63
2018-07-05T06:19:06.525Z,94728.88
2018-07-05T06:21:46.352Z,94730.25
2018-07-05T06:24:26.144Z,94728.13
2018-07-05T06:27:06.291Z,94727.70
2018-07-05T06:29:46.070Z,94722.27
2018-07-05T06:32:25.945Z,94721.56
2018-07-05T06:35:05.807Z,94720.98
2018-07-05T06:37:45.919Z,94708.56
2018-07-05T06:40:25.754Z,94718.39
2018-07-05T06:43:05.545Z,94713.90
2018-07-05T06:45:45.160Z,94715.80
2018-07-05T06:48:24.762Z,94711.34
2018-07-05T06:51:04.508Z,94716.44
2018-07-05T06:53:44.395Z,94714.50
2018-07-05T06:56:24.059Z,94709.23
2018-07-05T06:59:03.884Z,94709.57
2018-07-05T07:01:43.701Z,94709.28
2018-07-05T07:04:23.524Z,94708.14
2018-07-05T07:07:03.834Z,94712.77
2018-07-05T07:09:43.589Z,94709.44
2018-07-05T07:12:23.564Z,94713.80
2018-07-05T07:15:03.485Z,94717.86
2018-07-05T07:17:43.466Z,94711.83
2018-07-05T07:20:23.307Z,94708.41
2018-07-05T07:23:03.015Z,94708.84
2018-07-05T07:25:42.778Z,94707.01
2018-07-05T07:28:22.535Z,94698.23
2018-07-05T07:31:02.557Z,94716.21
2018-07-05T07:33:42.462Z,94718.70
2018-07-05T07:36:22.330Z,94716.56
2018-07-05T07:39:02.205Z,94710.28
2018-07-05T07:41:42.056Z,94709.64
2018-07-05T07:44:09.501Z,94704.36
2018-07-05T07:46:36.873Z,94715.80
2018-07-05T07:49:04.267Z,94705.38
2018-07-05T07:51:31.658Z,94711.64
2018-07-05T07:53:59.028Z,94713.42
2018-07-05T07:56:26.395Z,94711.18
2018-07-05T07:58:53.818Z,94707.00
2018-07-05T08:01:21.198Z,94703.24
2018-07-05T08:03:48.554Z,94702.38
2018-07-05T08:06:15.918Z,94702.63
2018-07-05T08:08:43.356Z,94707.86
2018-07-05T08:11:10.771Z,94705.69
2018-07-05T08:13:38.163Z,94706.55
2018-07-05T08:16:05.894Z,94699.48
2018-07-05T08:18:33.254Z,94712.41
2018-07-05T08:21:00.677Z,94707.23
2018-07-05T08:23:28.058Z,94718.02
2018-07-05T08:25:55.433Z,94701.53
2018-07-05T08:28:22.823Z,94686.98
2018-07-05T08:30:50.216Z,94698.66
2018-07-05T08:33:17.617Z,94698.14
2018-07-05T08:35:44.979Z,94691.13
2018-07-05T08:38:12.371Z,94688.64
2018-07-05T08:40:39.731Z,94689.06
2018-07-05T08:43:07.080Z,94685.92
2018-07-05T08:45:34.470Z,94681.83
2018-07-05T08:48:01.847Z,94685.41
2018-07-05T08:50:29.223Z,94682.34
2018-07-05T08:52:56.593Z,94683.45
2018-07-05T08:55:23.944Z,94671.08
2018-07-05T08:57:51.299Z,94670.06
2018-07-05T09:00:18.662Z,94679.34
2018-07-05T09:02:46.034Z,94679.23
2018-07-05T09:05:13.490Z,94671.53
2018-07-05T09:07:40.882Z,94668.52
2018-07-05T09:10:08.275Z,94664.60
2018-07-05T09:12:35.670Z,94666.77
2018-07-05T09:15:03.012Z,94663.98
2018-07-05T09:17:30.439Z,94672.27
2018-07-05T09:19:57.828Z,94663.56
2018-07-05T09:22:25.215Z,94666.37
2018-07-05T09:24:52.574Z,94655.22
2018-07-05T09:27:20.127Z,94665.39
2018-07-05T09:29:47.498Z,94662.22
2018-07-05T09:32:14.855Z,94659.12
2018-07-05T09:34:42.620Z,94649.49
2018-07-05T09:37:10.002Z,94657.52
2018-07-05T09:39:37.422Z,94658.16
2018-07-05T09:42:04.840Z,94648.45
2018-07-05T09:44:32.215Z,94650.34
2018-07-05T09:46:59.620Z,94639.45
2018-07-05T09:49:26.995Z,94645.98
2018-07-05T09:51:54.368Z,94655.27
2018-07-05T09:54:21.745Z,94641.63
2018-07-05T09:56:49.119Z,94630.56
2018-07-05T09:59:16.511Z,94641.16
2018-07-05T10:01:43.950Z,94630.86
2018-07-05T10:04:11.494Z,94624.02
2018-07-05T10:06:38.863Z,94622.25
2018-07-05T10:09:06.440Z,94631.82
2018-07-05T10:11:34.188Z,94634.19
2018-07-05T10:14:01.660Z,94627.52
2018-07-05T10:16:32.163Z,94627.55
2018-07-05T10:19:04.310Z,94624.38
2018-07-05T10:21:31.736Z,94637.16
2018-07-05T10:23:59.187Z,94628.64
2018-07-05T10:26:26.590Z,94629.70
2018-07-05T10:29:06.313Z,94634.77
2018-07-05T10:31:45.983Z,94619.61
2018-07-05T10:34:13.338Z,94621.80
2018-07-05T10:36:40.761Z,94625.24
2018-07-05T10:39:08.148Z,94615.93
2018-07-05T10:41:48.090Z,94626.58
2018-07-05T10:44:27.812Z,94622.84
2018-07-05T10:47:08.579Z,94622.33
2018-07-05T10:49:48.596Z,94613.27
2018-07-05T10:52:28.466Z,94615.66
2018-07-05T10:55:08.468Z,94615.14
2018-07-05T10:57:48.236Z,94608.20
2018-07-05T11:00:28.142Z,94603.09
2018-07-05T11:03:07.879Z,94618.13
2018-07-05T11:05:47.627Z,94601.56
2018-07-05T11:08:27.271Z,94608.05
2018-07-05T11:11:07.598Z,94608.88
2018-07-05T11:13:47.773Z,94614.14
2018-07-05T11:16:27.535Z,94604.79
2018-07-05T11:19:07.232Z,94592.85
2018-07-05T11:21:46.891Z,94607.78
2018-07-05T11:24:26.656Z,94595.80
2018-07-05T11:27:06.395Z,94610.95
2018-07-05T11:29:46.257Z,94603.72
2018-07-05T11:32:27.865Z,94595.83
2018-07-05T11:35:11.850Z,94583.98
2018-07-05T11:37:53.556Z,94623.59
2018-07-05T11:40:33.445Z,94597.77
2018-07-05T11:43:14.221Z,94599.02
2018-07-05T11:45:55.439Z,94586.77
2018-07-05T11:48:37.034Z,94587.84
2018-07-05T11:51:19.508Z,94574.92
2018-07-05T11:53:59.391Z,94574.67
2018-07-05T11:56:39.216Z,94573.59
2018-07-05T11:59:18.866Z,94581.63
2018-07-05T12:01:59.210Z,94576.83
2018-07-05T12:04:38.747Z,94568.84
2018-07-05T12:07:19.089Z,94575.20
2018-07-05T12:09:59.056Z,94575.38
2018-07-05T12:12:38.724Z,94578.17
2018-07-05T12:15:18.607Z,94584.83
2018-07-05T12:17:58.429Z,94562.80
2018-07-05T12:20:38.506Z,94561.90
2018-07-05T12:23:18.762Z,94562.88
2018-07-05T12:25:58.455Z,94557.52
2018-07-05T12:28:38.228Z,94561.44
2018-07-05T12:31:19.330Z,94560.77
2018-07-05T12:33:59.156Z,94556.36
2018-07-05T12:36:39.114Z,94554.23
2018-07-05T12:39:18.960Z,94549.02
2018-07-05T12:41:58.851Z,94552.48
2018-07-05T12:44:38.600Z,94555.61
2018-07-05T12:47:18.498Z,94550.53
2018-07-05T12:49:58.303Z,94548.00
2018-07-05T12:52:38.018Z,94554.20
2018-07-05T12:55:17.919Z,94551.11
2018-07-05T12:57:58.562Z,94547.73
2018-07-05T13:00:38.370Z,94547.62
2018-07-05T13:03:18.100Z,94539.04
2018-07-05T13:05:57.847Z,94535.03
2018-07-05T13:08:37.507Z,94535.34
2018-07-05T13:11:18.114Z,94541.80
2018-07-05T13:13:57.796Z,94528.33
2018-07-05T13:16:37.451Z,94533.79
2018-07-05T13:19:17.946Z,94530.31
2018-07-05T13:21:57.811Z,94533.02
2018-07-05T13:24:37.921Z,94538.23
2018-07-05T13:27:17.681Z,94516.16
2018-07-05T13:30:00.166Z,94523.63
2018-07-05T13:32:40.313Z,94519.56
2018-07-05T13:35:20.075Z,94522.45
2018-07-05T13:38:03.502Z,94508.97
2018-07-05T13:40:44.099Z,94508.39
2018-07-05T13:43:23.911Z,94504.99
2018-07-05T13:46:03.542Z,94513.71
2018-07-05T13:48:43.223Z,94512.59
2018-07-05T13:51:23.009Z,94509.00
2018-07-05T13:54:02.856Z,94518.70
2018-07-05T13:56:42.672Z,94533.12
2018-07-05T13:59:22.410Z,94527.52
2018-07-05T14:02:02.098Z,94526.19
2018-07-05T14:04:41.715Z,94515.95
2018-07-05T14:07:21.571Z,94523.20
2018-07-05T14:10:01.349Z,94518.11
2018-07-05T14:12:41.153Z,94511.16
2018-07-05T14:15:20.703Z,94518.09
2018-07-05T14:18:00.603Z,94520.75
2018-07-05T14:20:40.269Z,94512.98
2018-07-05T14:23:20.190Z,94516.95
2018-07-05T14:26:00.067Z,94514.58
2018-07-05T14:28:39.833Z,94514.88
2018-07-05T14:31:19.684Z,94507.98
2018-07-05T14:33:59.533Z,94510.77
2018-07-05T14:36:39.230Z,94509.05
2018-07-05T14:39:18.874Z,94512.34
2018-07-05T14:41:58.486Z,94504.74
2018-07-05T14:44:38.262Z,94502.11
2018-07-05T14:47:17.957Z,94502.19
2018-07-05T14:49:57.795Z,94492.20
2018-07-05T14:52:37.646Z,94499.25
2018-07-05T14:55:17.435Z,94488.38
2018-07-05T14:57:57.064Z,94499.91
2018-07-05T15:00:36.763Z,94495.55
2018-07-05T15:03:16.613Z,94488.10
2018-07-05T15:05:56.440Z,94491.58
2018-07-05T15:08:39.475Z,94487.19
2018-07-05T15:11:22.691Z,94493.20
2018-07-05T15:14:05.326Z,94498.91
2018-07-05T15:16:51.360Z,94499.19
2018-07-05T15:19:35.383Z,94490.00
2018-07-05T15:22:26.272Z,94487.31
2018-07-05T15:25:14.077Z,94482.98
2018-07-05T15:27:57.522Z,94482.45
2018-07-05T15:30:37.884Z,94481.19
2018-07-05T15:33:17.730Z,94479.40
2018-07-05T15:35:57.616Z,94489.48
2018-07-05T15:38:37.555Z,94486.58
2018-07-05T15:41:17.483Z,94482.59
2018-07-05T15:43:57.397Z,94479.91
2018-07-05T15:46:37.175Z,94481.42
2018-07-05T15:49:16.995Z,94486.80
2018-07-05T15:51:56.822Z,94478.34
2018-07-05T15:54:36.675Z,94481.38
2018-07-05T15:57:16.524Z,94470.23
2018-07-05T15:59:56.462Z,94459.89
2018-07-05T16:02:36.550Z,94466.95
2018-07-05T16:05:16.258Z,94466.50
2018-07-05T16:07:56.047Z,94470.60
2018-07-05T16:10:35.778Z,94471.94
2018-07-05T16:13:15.416Z,94467.50
2018-07-05T16:15:55.111Z,94467.73
2018-07-05T16:18:34.894Z,94461.86
2018-07-05T16:21:14.652Z,94460.62
2018-07-05T16:23:54.316Z,94459.03
2018-07-05T16:26:34.081Z,94462.22
2018-07-05T16:29:13.882Z,94468.14
2018-07-05T16:31:53.759Z,94460.46
2018-07-05T16:34:33.538Z,94463.37
2018-07-05T16:37:13.461Z,94465.64
2018-07-05T16:39:53.233Z,94456.66
2018-07-05T16:42:33.020Z,94462.67
2018-07-05T16:45:12.740Z,94456.84
2018-07-05T16:47:52.542Z,94454.72
2018-07-05T16:50:32.377Z,94453.23
2018-07-05T16:53:12.178Z,94465.22
2018-07-05T16:55:51.934Z,94455.16
2018-07-05T16:58:31.801Z,94459.48
2018-07-05T17:01:11.583Z,94457.28
2018-07-05T17:03:51.330Z,94455.12
2018-07-05T17:06:31.250Z,94452.54
2018-07-05T17:09:11.161Z,94460.37
2018-07-05T17:11:51.078Z,94458.53
2018-07-05T17:14:30.823Z,94457.53
2018-07-05T17:17:10.445Z,94464.47
2018-07-05T17:19:50.299Z,94456.36
2018-07-05T17:22:30.147Z,94455.13
2018-07-05T17:25:09.922Z,94457.69
2018-07-05T17:27:49.532Z,94456.18
2018-07-05T17:30:29.246Z,94456.29
2018-07-05T17:33:08.984Z,94453.97
2018-07-05T17:35:48.726Z,94455.73
2018-07-05T17:38:28.471Z,94454.52
2018-07-05T17:41:08.226Z,94463.08
2018-07-05T17:43:48.000Z,94457.03
2018-07-05T17:46:28.042Z,94467.06
2018-07-05T17:49:07.857Z,94463.27
2018-07-05T17:51:47.551Z,94466.38
2018-07-05T17:54:27.231Z,94465.20
2018-07-05T17:57:07.007Z,94468.70
2018-07-05T17:59:46.650Z,94465.38
2018-07-05T18:02:26.507Z,94462.45
2018-07-05T18:05:06.327Z,94461.70
2018-07-05T18:07:45.972Z,94462.56
2018-07-05T18:10:25.753Z,94464.44
2018-07-05T18:13:05.484Z,94459.95
2018-07-05T18:15:45.347Z,94459.98
2018-07-05T18:18:29.488Z,94465.07
2018-07-05T18:21:09.352Z,94466.64
2018-07-05T18:23:49.148Z,94466.92
2018-07-05T18:26:28.987Z,94476.25
2018-07-05T18:29:08.574Z,94466.41
2018-07-05T18:31:48.356Z,94466.41
2018-07-05T18:34:28.178Z,94474.39
2018-07-05T18:37:07.987Z,94473.02
2018-07-05T18:39:47.706Z,94471.13
2018-07-05T18:42:29.789Z,94480.13
2018-07-05T18:45:09.316Z,94486.23
2018-07-05T18:47:49.219Z,94488.36
2018-07-05T18:50:28.977Z,94493.11
2018-07-05T18:53:08.839Z,94497.09
2018-07-05T18:55:48.398Z,94493.38
2018-07-05T18:58:28.334Z,94491.48
2018-07-05T19:01:08.048Z,94495.72
2018-07-05T19:03:47.788Z,94496.48
2018-07-05T19:06:28.051Z,94496.94
2018-07-05T19:09:07.722Z,94502.03
2018-07-05T19:11:47.384Z,94499.12
2018-07-05T19:14:27.222Z,94509.98
2018-07-05T19:17:07.067Z,94511.87
2018-07-05T19:19:46.855Z,94507.33
2018-07-05T19:22:26.619Z,94500.91
2018-07-05T19:25:06.417Z,94503.54
2018-07-05T19:27:46.472Z,94504.58
2018-07-05T19:30:26.276Z,94506.09
2018-07-05T19:33:06.193Z,94508.95
2018-07-05T19:35:46.167Z,94509.66
2018-07-05T19:38:25.968Z,94505.89
2018-07-05T19:41:05.859Z,94506.88
2018-07-05T19:43:45.643Z,94507.06
2018-07-05T19:46:25.641Z,94510.16
2018-07-05T19:49:05.614Z,94505.09
2018-07-05T19:51:45.417Z,94510.66
2018-07-05T19:54:25.281Z,94511.13
2018-07-05T19:57:05.340Z,94509.33
2018-07-05T19:59:45.050Z,94507.30
2018-07-05T20:02:24.807Z,94506.72
2018-07-05T20:05:04.657Z,94506.19
2018-07-05T20:07:44.485Z,94507.63
2018-07-05T20:10:24.348Z,94503.63
2018-07-05T20:13:04.038Z,94503.65
2018-07-05T20:15:43.856Z,94498.58
2018-07-05T20:18:23.511Z,94504.60
2018-07-05T20:21:03.232Z,94504.09
2018-07-05T20:23:42.952Z,94506.67
2018-07-05T20:26:22.824Z,94507.72
2018-07-05T20:29:02.537Z,94503.66
2018-07-05T20:31:42.447Z,94509.17
2018-07-05T20:34:22.130Z,94514.70
2018-07-05T20:37:01.902Z,94515.98
2018-07-05T20:39:41.634Z,94509.98
2018-07-05T20:42:21.295Z,94509.53
2018-07-05T20:45:01.283Z,94508.81
2018-07-05T20:47:41.423Z,94513.89
2018-07-05T20:50:21.342Z,94511.30
2018-07-05T20:53:01.160Z,94506.65
2018-07-05T20:55:40.991Z,94509.86
2018-07-05T20:58:20.740Z,94503.05
2018-07-05T21:01:00.432Z,94510.55
2018-07-05T21:03:40.240Z,94513.86
2018-07-05T21:06:19.948Z,94514.88
2018-07-05T21:08:59.658Z,94511.85
2018-07-05T21:11:39.559Z,94513.24
2018-07-05T21:14:19.360Z,94514.66
2018-07-05T21:16:59.027Z,94517.84
2018-07-05T21:19:38.833Z,94507.83
2018-07-05T21:22:18.685Z,94515.41
2018-07-05T21:24:58.550Z,94512.42
2018-07-05T21:27:38.318Z,94515.06
2018-07-05T21:30:18.090Z,94518.17
2018-07-05T21:32:57.953Z,94519.17
2018-07-05T21:35:37.633Z,94519.21
2018-07-05T21:38:17.428Z,94520.97
2018-07-05T21:40:57.235Z,94517.92
2018-07-05T21:43:37.347Z,94516.98
2018-07-05T21:46:17.098Z,94525.95
2018-07-05T21:48:56.925Z,94520.91
2018-07-05T21:51:36.709Z,94515.02
2018-07-05T21:54:16.488Z,94512.78
2018-07-05T21:56:56.440Z,94515.14
2018-07-05T21:59:36.112Z,94518.45
2018-07-05T22:02:15.938Z,94518.48
2018-07-05T22:04:55.802Z,94519.32
2018-07-05T22:07:35.699Z,94519.09
2018-07-05T22:10:15.390Z,94516.50
2018-07-05T22:12:55.093Z,94518.88
2018-07-05T22:15:34.804Z,94515.17
2018-07-05T22:18:20.095Z,94514.24
2018-07-05T22:21:16.248Z,94515.33
2018-07-05T22:24:01.509Z,94511.77
2018-07-05T22:26:44.586Z,94514.27
2018-07-05T22:29:29.605Z,94508.50
2018-07-05T22:32:09.351Z,94509.22
2018-07-05T22:34:49.090Z,94507.08
2018-07-05T22:37:28.863Z,94502.52
2018-07-05T22:40:08.498Z,94509.27
2018-07-05T22:42:48.255Z,94507.91
2018-07-05T22:45:28.025Z,94507.83
2018-07-05T22:48:07.896Z,94510.55
2018-07-05T22:50:47.783Z,94513.31
2018-07-05T22:53:27.707Z,94513.59
2018-07-05T22:56:07.586Z,94509.30
2018-07-05T22:58:47.252Z,94510.66
2018-07-05T23:01:27.007Z,94510.95
2018-07-05T23:04:06.768Z,94506.70
2018-07-05T23:06:47.440Z,94505.69
2018-07-05T23:09:27.255Z,94503.50
2018-07-05T23:12:07.061Z,94504.27
2018-07-05T23:14:46.810Z,94507.77
2018-07-05T23:17:26.723Z,94503.47
2018-07-05T23:20:06.282Z,94499.90
2018-07-05T23:22:46.119Z,94504.03
2018-07-05T23:25:26.010Z,94502.60
2018-07-05T23:28:05.847Z,94500.83
2018-07-05T23:30:45.563Z,94503.34
2018-07-05T23:33:25.206Z,94495.44
2018-07-05T23:36:04.898Z,94501.56
2018-07-05T23:38:44.535Z,94499.83
2018-07-05T23:41:24.217Z,94495.03
2018-07-05T23:44:03.958Z,94496.17
2018-07-05T23:46:43.851Z,94493.48
2018-07-05T23:49:23.622Z,94496.13
2018-07-05T23:52:03.370Z,94497.88
2018-07-05T23:54:42.958Z,94486.77
2018-07-05T23:57:22.671Z,94489.13
